Birmingham (BHM/KBHM)

Map

Destinations

Information

Location
Birmingham, AL
Local Time
20:49 / 8:49 pm
GMT Time
01:49 / 1:49 am
Gates
Unassigned
No FAA reported delays
METAR KBHM 270053Z 36004KT 10SM FEW250 24/17 A3009 RMK AO2 SLP183 T02440172 $
TAF KBHM 262341Z 2700/2724 35004KT P6SM SCT250 FM271400 06006KT P6SM FEW150